Evendale, Ohio
Current Conditions -  °F | °C
As of 10:53 PM on Saturday 25 Oct 2014 (Local Time) from KHAO Reporting Station
Clear Clear  
Wind Chill: 55°   Ceiling: Unl
Heat Index: 55°   Visibility: 9mi
Dew Point: 50°   Wind: 3mph
Humidity: 83%   Direction: 280°W
Pressure: 29.93"   Gusts: NA
Location:  39.2779°N, 84.4005°W
Report Text: KHAO 260253Z AUTO 28003KT 9SM CLR 13/10 A2993 RMK AO2 SLP133 T01280100 53005
Loading
Personal Weather Stations






























Interactive Weather Map
Tropical Storm Tracking
New forecast layout! Learn more

10-Day Weather Forecast

Advertisements
Track Severe Weather on mobile